createdAt,value
2023-03-23T15:59:02.622Z,16.71
2023-03-23T16:04:08.743Z,16.66
2023-03-23T16:09:17.208Z,16.62
2023-03-23T16:14:20.711Z,16.55
2023-03-23T16:19:24.605Z,16.49
2023-03-23T16:24:28.215Z,16.42
2023-03-23T16:29:54.352Z,16.33
2023-03-23T16:35:00.640Z,16.23
2023-03-23T16:40:06.256Z,16.14
2023-03-23T16:45:20.793Z,16.00
2023-03-23T16:50:24.158Z,15.90
2023-03-23T16:55:28.176Z,15.83
2023-03-23T17:00:32.205Z,15.77
2023-03-23T17:05:37.270Z,15.69
2023-03-23T17:10:41.896Z,15.63
2023-03-23T17:15:47.238Z,15.54
2023-03-23T17:20:53.478Z,15.47
2023-03-23T17:25:56.947Z,15.41
2023-03-23T17:31:00.591Z,15.34
2023-03-23T17:36:04.526Z,15.29
2023-03-23T17:41:08.237Z,15.23
2023-03-23T17:46:11.709Z,15.20
2023-03-23T17:51:15.159Z,15.19
2023-03-23T17:56:18.673Z,15.15
2023-03-23T18:01:22.152Z,15.15
2023-03-23T18:06:25.650Z,15.15
2023-03-23T18:11:30.242Z,15.19
2023-03-23T18:16:33.813Z,15.19
2023-03-23T18:21:45.736Z,15.16
2023-03-23T18:26:49.753Z,15.16
2023-03-23T18:31:53.524Z,15.13
2023-03-23T18:36:57.160Z,15.09
2023-03-23T18:42:01.002Z,15.03
2023-03-23T18:47:04.884Z,15.00
2023-03-23T18:52:11.459Z,14.99
2023-03-23T18:57:18.144Z,14.97
2023-03-23T19:02:22.117Z,14.98
2023-03-23T19:08:10.075Z,14.98
2023-03-23T19:13:21.639Z,14.95
2023-03-23T19:18:25.586Z,14.96
2023-03-23T19:23:38.009Z,14.94
2023-03-23T19:29:21.449Z,14.92
2023-03-23T19:34:06.252Z,14.92
2023-03-23T19:39:09.813Z,14.89
2023-03-23T19:44:17.729Z,14.85
2023-03-23T19:49:25.080Z,14.84
2023-03-23T19:54:39.886Z,14.82
2023-03-23T19:59:46.367Z,14.81
2023-03-23T20:04:50.024Z,14.76
2023-03-23T20:09:53.563Z,14.70
2023-03-23T20:14:58.810Z,14.68
2023-03-23T20:20:02.217Z,14.63
2023-03-23T20:25:07.540Z,14.60
2023-03-23T20:30:12.584Z,14.60
2023-03-23T20:35:46.257Z,14.60
2023-03-23T20:40:49.895Z,14.62
2023-03-23T20:45:53.176Z,14.57
2023-03-23T20:51:00.571Z,14.48
2023-03-23T20:56:16.448Z,14.40
2023-03-23T21:01:21.832Z,14.36
2023-03-23T21:06:28.560Z,14.28
2023-03-23T21:11:33.307Z,14.22
2023-03-23T21:16:36.877Z,14.24
2023-03-23T21:21:55.307Z,14.24
2023-03-23T21:27:02.235Z,14.16
2023-03-23T21:32:08.720Z,14.10
2023-03-23T21:37:15.187Z,14.04
2023-03-23T21:42:18.651Z,14.00
2023-03-23T21:47:22.215Z,13.96
2023-03-23T21:52:26.655Z,13.93
2023-03-23T21:57:31.396Z,13.90
2023-03-23T22:02:51.145Z,13.83
2023-03-23T22:07:54.585Z,13.70
2023-03-23T22:12:58.342Z,13.58
2023-03-23T22:18:02.153Z,13.47
2023-03-23T22:23:09.274Z,13.37
2023-03-23T22:28:12.749Z,13.35
2023-03-23T22:33:18.009Z,13.34
2023-03-23T22:38:21.518Z,13.34
2023-03-23T22:43:45.726Z,13.34
2023-03-23T22:48:49.348Z,13.31
2023-03-23T22:53:52.953Z,13.28
2023-03-23T22:58:59.038Z,13.24
2023-03-23T23:04:05.819Z,13.23
2023-03-23T23:09:20.429Z,13.25
2023-03-23T23:14:23.914Z,13.31
2023-03-23T23:19:47.455Z,13.39
2023-03-23T23:24:51.960Z,13.40
2023-03-23T23:29:58.603Z,13.34
2023-03-23T23:35:25.078Z,13.29
2023-03-23T23:40:28.453Z,13.24
2023-03-23T23:45:42.514Z,13.23
2023-03-23T23:50:46.437Z,13.23
2023-03-23T23:55:53.138Z,13.20
